Time;durP1;ratioP1;P1;durP2;ratioP2;P2;SDS_P1;SDS_P2;PMS_P1;PMS_P2;Temp;Humidity;BMP_temperature;BMP_pressure;BME280_temperature;BME280_humidity;BME280_pressure;Samples;Min_cycle;Max_cycle;Signal;HPM_P1;HPM_P2
2024/01/19 00:00:00;;;;;;;;;;;;;;;8.12;87.30;98768.88;3121683;28;19940;-71
2024/01/19 00:01:31;;;;;;;;;;;;;;;8.14;87.43;98776.59;3121358;28;19932;-72
2024/01/19 00:03:02;;;;;;;;;;;;;;;8.14;87.59;98767.03;3121575;28;20318;-72
2024/01/19 00:04:33;;;;;;;;;;;;;;;8.15;88.18;98765.28;3121333;28;19925;-70
2024/01/19 00:06:05;;;;;;;;;;;;;;;8.17;88.32;98773.81;3121848;28;19921;-71
2024/01/19 00:07:35;;;;;;;;;;;;;;;8.17;88.75;98763.47;3121557;28;19925;-71
2024/01/19 00:09:08;;;;;;;;;;;;;;;8.19;88.73;98771.97;3121273;28;20031;-71
2024/01/19 00:10:39;;;;;;;;;;;;;;;8.20;89.04;98768.47;3121765;28;19921;-71
2024/01/19 00:12:10;;;;;;;;;;;;;;;8.21;89.04;98770.97;3121579;28;20008;-70
2024/01/19 00:13:41;;;;;;;;;;;;;;;8.24;89.05;98766.56;3121355;28;19956;-71
2024/01/19 00:15:12;;;;;;;;;;;;;;;8.26;89.46;98767.31;3121554;28;20035;-70
2024/01/19 00:16:43;;;;;;;;;;;;;;;8.27;89.38;98769.81;3121126;28;20318;-71
2024/01/19 00:18:14;;;;;;;;;;;;;;;8.29;89.77;98767.16;3121387;28;19932;-72
2024/01/19 00:19:45;;;;;;;;;;;;;;;8.31;89.96;98765.31;3121414;28;19928;-71
2024/01/19 00:21:16;;;;;;;;;;;;;;;8.33;90.20;98763.47;3121012;28;19929;-71
2024/01/19 00:22:48;;;;;;;;;;;;;;;8.33;90.34;98753.94;3121531;28;19925;-72
2024/01/19 00:24:20;;;;;;;;;;;;;;;8.36;90.54;98746.00;3121373;28;20464;-72
2024/01/19 00:25:51;;;;;;;;;;;;;;;8.38;90.49;98730.38;3121225;28;20011;-71
2024/01/19 00:27:22;;;;;;;;;;;;;;;8.40;90.40;98712.97;3121274;28;20423;-72
2024/01/19 00:28:55;;;;;;;;;;;;;;;8.41;90.57;98699.94;3121184;28;19933;-72
2024/01/19 00:30:25;;;;;;;;;;;;;;;8.44;90.57;98706.72;3120866;28;20015;-71
2024/01/19 00:31:57;;;;;;;;;;;;;;;8.46;90.61;98707.47;3121062;28;20290;-71
2024/01/19 00:33:27;;;;;;;;;;;;;;;8.50;90.35;98705.56;3121064;28;19928;-71
2024/01/19 00:34:59;;;;;;;;;;;;;;;8.52;90.08;98701.97;3121205;28;20390;-71
2024/01/19 00:36:29;;;;;;;;;;;;;;;8.56;90.37;98700.03;3121012;28;19925;-71
2024/01/19 00:38:01;;;;;;;;;;;;;;;8.59;89.87;98686.88;3121122;28;20495;-70
2024/01/19 00:39:33;;;;;;;;;;;;;;;8.62;89.82;98681.53;3121249;28;19932;-70
2024/01/19 00:41:05;;;;;;;;;;;;;;;8.64;89.71;98671.91;3120928;28;19927;-71
2024/01/19 00:42:35;;;;;;;;;;;;;;;8.65;89.26;98677.00;3121243;28;19927;-70
2024/01/19 00:44:07;;;;;;;;;;;;;;;8.67;89.20;98679.53;3121267;28;19929;-70
2024/01/19 00:45:37;;;;;;;;;;;;;;;8.69;88.96;98676.81;3120760;28;19947;-70
2024/01/19 00:47:09;;;;;;;;;;;;;;;8.70;89.15;98673.31;3121121;28;19925;-72
2024/01/19 00:48:39;;;;;;;;;;;;;;;8.71;88.68;98680.19;3121046;28;19921;-72
2024/01/19 00:50:11;;;;;;;;;;;;;;;8.72;88.95;98681.84;3120800;28;20402;-70
2024/01/19 00:51:42;;;;;;;;;;;;;;;8.71;88.77;98681.00;3121007;28;19948;-71
2024/01/19 00:53:13;;;;;;;;;;;;;;;8.73;88.95;98681.78;3120833;28;19921;-70
2024/01/19 00:54:45;;;;;;;;;;;;;;;8.74;89.19;98682.59;3120643;28;19921;-72
2024/01/19 00:56:17;;;;;;;;;;;;;;;8.75;89.05;98674.72;3112452;28;19921;-73
2024/01/19 00:57:48;;;;;;;;;;;;;;;8.76;88.68;98673.81;3120727;28;19972;-71
2024/01/19 00:59:19;;;;;;;;;;;;;;;8.77;88.60;98666.84;3120888;28;20401;-72
2024/01/19 01:00:50;;;;;;;;;;;;;;;8.77;88.64;98656.47;3120467;28;19921;-71
2024/01/19 01:02:22;;;;;;;;;;;;;;;8.77;88.63;98646.94;3120798;28;19928;-71
2024/01/19 01:03:55;;;;;;;;;;;;;;;8.77;88.87;98643.50;3121013;28;19925;-71
2024/01/19 01:05:25;;;;;;;;;;;;;;;8.77;89.20;98633.94;3120745;28;19925;-71
2024/01/19 01:06:57;;;;;;;;;;;;;;;8.78;89.25;98642.56;3121089;28;20394;-71
2024/01/19 01:08:27;;;;;;;;;;;;;;;8.77;89.39;98640.91;3120925;28;19935;-71
2024/01/19 01:10:00;;;;;;;;;;;;;;;8.75;89.86;98650.53;3120777;28;20270;-69
2024/01/19 01:11:31;;;;;;;;;;;;;;;8.74;90.07;98652.28;3120862;28;19921;-70
2024/01/19 01:13:03;;;;;;;;;;;;;;;8.72;90.51;98635.97;3120886;28;20017;-69
2024/01/19 01:14:34;;;;;;;;;;;;;;;8.70;91.14;98637.81;3120621;28;19925;-70
2024/01/19 01:16:05;;;;;;;;;;;;;;;8.66;91.84;98637.13;3120751;28;19928;-70
2024/01/19 01:17:36;;;;;;;;;;;;;;;8.44;91.93;98610.72;3120652;28;19921;-70
2024/01/19 01:19:08;;;;;;;;;;;;;;;8.66;91.86;98638.91;3120627;28;19932;-70
2024/01/19 01:20:39;;;;;;;;;;;;;;;8.64;91.84;98628.63;3120749;28;19933;-70
2024/01/19 01:22:12;;;;;;;;;;;;;;;8.64;92.04;98638.16;3120453;28;20035;-70
2024/01/19 01:23:43;;;;;;;;;;;;;;;8.64;92.04;98646.78;3120792;28;20015;-71
2024/01/19 01:25:16;;;;;;;;;;;;;;;8.64;92.31;98633.81;3120523;28;19925;-70
2024/01/19 01:26:46;;;;;;;;;;;;;;;8.62;92.53;98646.03;3120553;28;20472;-69
2024/01/19 01:28:18;;;;;;;;;;;;;;;8.60;92.77;98650.44;3120835;28;19925;-69
2024/01/19 01:29:48;;;;;;;;;;;;;;;8.57;93.48;98653.22;3120631;28;19920;-69
2024/01/19 01:31:20;;;;;;;;;;;;;;;8.50;93.92;98651.91;3120362;28;19928;-70
2024/01/19 01:32:51;;;;;;;;;;;;;;;8.45;94.19;98653.06;3120694;28;19921;-70
2024/01/19 01:34:22;;;;;;;;;;;;;;;8.40;94.65;98651.56;3120415;28;19924;-70
2024/01/19 01:35:53;;;;;;;;;;;;;;;8.38;94.87;98653.41;3120656;28;20008;-71
2024/01/19 01:37:24;;;;;;;;;;;;;;;8.34;95.38;98657.06;3120377;28;19925;-70
2024/01/19 01:38:55;;;;;;;;;;;;;;;8.32;95.08;98652.88;3120184;28;20398;-70
2024/01/19 01:40:28;;;;;;;;;;;;;;;8.31;94.98;98654.63;3120577;28;20031;-70
2024/01/19 01:41:58;;;;;;;;;;;;;;;8.32;94.97;98651.09;3120322;28;19921;-69
2024/01/19 01:43:31;;;;;;;;;;;;;;;8.33;95.01;98637.22;3120488;28;19921;-70
2024/01/19 01:45:02;;;;;;;;;;;;;;;8.31;95.11;98628.69;3120505;28;19932;-70
2024/01/19 01:46:34;;;;;;;;;;;;;;;8.30;95.37;98634.78;3120172;28;19925;-70
2024/01/19 01:48:04;;;;;;;;;;;;;;;8.28;95.42;98641.84;3120469;28;19921;-70
2024/01/19 01:49:36;;;;;;;;;;;;;;;8.29;95.28;98642.66;3120415;28;19928;-71
2024/01/19 01:51:08;;;;;;;;;;;;;;;8.31;95.30;98640.81;3124392;28;19931;-69
2024/01/19 01:52:40;;;;;;;;;;;;;;;8.31;94.85;98641.66;3120520;28;19921;-70
2024/01/19 01:54:10;;;;;;;;;;;;;;;8.33;94.87;98647.59;3120413;28;19921;-70
2024/01/19 01:55:43;;;;;;;;;;;;;;;8.33;94.75;98638.97;3120279;28;19928;-70
2024/01/19 01:57:14;;;;;;;;;;;;;;;8.32;94.90;98632.97;3120296;28;19982;-69
2024/01/19 01:58:46;;;;;;;;;;;;;;;8.32;94.85;98638.13;3120211;28;19920;-69
2024/01/19 02:00:17;;;;;;;;;;;;;;;8.32;94.86;98638.13;3120146;28;19935;-70
2024/01/19 02:01:49;;;;;;;;;;;;;;;8.33;94.99;98631.19;3119781;28;20011;-69
2024/01/19 02:03:19;;;;;;;;;;;;;;;8.32;94.94;98642.50;3120029;28;19920;-70
2024/01/19 02:04:51;;;;;;;;;;;;;;;8.32;94.80;98637.31;3113252;28;19944;-69
2024/01/19 02:06:22;;;;;;;;;;;;;;;8.31;94.67;98636.47;3114255;28;20028;-69
2024/01/19 02:07:53;;;;;;;;;;;;;;;8.31;94.39;98636.47;3119892;28;19924;-70
2024/01/19 02:09:24;;;;;;;;;;;;;;;8.31;94.50;98633.88;3120051;28;19929;-71
2024/01/19 02:10:57;;;;;;;;;;;;;;;8.29;94.15;98640.91;3119986;28;19921;-69
2024/01/19 02:12:28;;;;;;;;;;;;;;;8.30;93.95;98642.56;3120244;28;19929;-70
2024/01/19 02:13:59;;;;;;;;;;;;;;;8.28;94.00;98652.22;3120190;28;19932;-70
2024/01/19 02:15:30;;;;;;;;;;;;;;;8.25;93.98;98654.94;3119936;28;19921;-70
2024/01/19 02:17:01;;;;;;;;;;;;;;;8.24;93.86;98652.44;3119941;28;19961;-69
2024/01/19 02:18:32;;;;;;;;;;;;;;;8.22;93.99;98649.91;3120104;28;19924;-69
2024/01/19 02:20:03;;;;;;;;;;;;;;;8.21;94.07;98667.25;3120367;28;19970;-69
2024/01/19 02:21:35;;;;;;;;;;;;;;;8.23;93.91;98668.94;3120406;28;19968;-68
2024/01/19 02:23:10;;;;;;;;;;;;;;;8.23;93.72;98674.13;3119960;28;20258;-69
2024/01/19 02:24:44;;;;;;;;;;;;;;;8.22;93.70;98670.66;3120144;28;20262;-67
2024/01/19 02:26:14;;;;;;;;;;;;;;;8.21;93.61;98669.84;3120071;28;19929;-69
2024/01/19 02:27:46;;;;;;;;;;;;;;;8.21;93.39;98667.25;3120431;28;19921;-68
2024/01/19 02:29:19;;;;;;;;;;;;;;;8.22;93.30;98660.28;3119824;28;19931;-68
2024/01/19 02:30:51;;;;;;;;;;;;;;;8.23;93.39;98668.94;3119506;28;19951;-67
2024/01/19 02:32:21;;;;;;;;;;;;;;;8.21;93.32;98671.59;3120120;28;19925;-69
2024/01/19 02:33:53;;;;;;;;;;;;;;;8.21;93.12;98674.19;3120117;28;19928;-69
2024/01/19 02:35:24;;;;;;;;;;;;;;;8.20;93.04;98678.53;3119811;28;19929;-68
2024/01/19 02:36:55;;;;;;;;;;;;;;;8.20;92.96;98678.53;3119991;28;20322;-68
2024/01/19 02:38:25;;;;;;;;;;;;;;;8.21;92.75;98694.94;3119957;28;19932;-68
2024/01/19 02:40:00;;;;;;;;;;;;;;;8.21;93.01;98693.19;3119777;28;19929;-68
2024/01/19 02:41:30;;;;;;;;;;;;;;;8.21;92.84;98689.75;3119635;28;19921;-68
2024/01/19 02:43:02;;;;;;;;;;;;;;;8.21;92.55;98681.97;3119494;28;19921;-68
2024/01/19 02:44:32;;;;;;;;;;;;;;;8.21;92.60;98681.97;3119646;28;19925;-68
2024/01/19 02:46:04;;;;;;;;;;;;;;;8.21;92.32;98687.16;3113791;28;19921;-69
2024/01/19 02:47:34;;;;;;;;;;;;;;;8.21;92.32;98692.34;3123569;28;19925;-68
2024/01/19 02:49:06;;;;;;;;;;;;;;;8.18;92.39;98695.09;3119986;28;20323;-69
2024/01/19 02:50:37;;;;;;;;;;;;;;;8.17;92.56;98701.22;3119813;28;20031;-68
2024/01/19 02:52:08;;;;;;;;;;;;;;;8.15;92.34;98697.84;3119738;28;19924;-68
2024/01/19 02:53:39;;;;;;;;;;;;;;;8.14;92.73;98701.38;3119669;28;19921;-69
2024/01/19 02:55:12;;;;;;;;;;;;;;;8.13;92.68;98697.09;3119581;28;19925;-68
2024/01/19 02:56:42;;;;;;;;;;;;;;;8.12;92.43;98698.84;3119713;28;20417;-68
2024/01/19 02:58:14;;;;;;;;;;;;;;;8.09;92.93;98693.81;3119708;28;19921;-69
2024/01/19 02:59:44;;;;;;;;;;;;;;;8.09;92.71;98701.59;3114285;28;19934;-69
2024/01/19 03:01:16;;;;;;;;;;;;;;;8.09;92.62;98708.56;3111961;28;19927;-69
2024/01/19 03:02:46;;;;;;;;;;;;;;;8.07;92.65;98712.97;3119526;28;19925;-68
2024/01/19 03:04:18;;;;;;;;;;;;;;;8.07;92.60;98710.38;3119756;28;19929;-69
2024/01/19 03:05:48;;;;;;;;;;;;;;;8.06;92.29;98721.69;3119815;28;19928;-69
2024/01/19 03:07:20;;;;;;;;;;;;;;;8.04;92.66;98724.34;3119664;28;19929;-69
2024/01/19 03:08:50;;;;;;;;;;;;;;;8.02;92.41;98725.34;3119792;28;19921;-68
2024/01/19 03:10:23;;;;;;;;;;;;;;;7.99;92.88;98715.97;3119993;28;19929;-68
2024/01/19 03:11:54;;;;;;;;;;;;;;;7.98;92.90;98720.31;3119786;28;19921;-69
2024/01/19 03:13:25;;;;;;;;;;;;;;;7.98;92.62;98722.91;3119657;28;20325;-69
2024/01/19 03:14:56;;;;;;;;;;;;;;;7.98;92.91;98722.91;3119608;28;19928;-68
2024/01/19 03:16:28;;;;;;;;;;;;;;;7.97;92.75;98726.41;3119482;28;20329;-68
2024/01/19 03:17:58;;;;;;;;;;;;;;;7.95;92.69;98717.88;3119766;28;19932;-69
2024/01/19 03:19:31;;;;;;;;;;;;;;;7.95;92.98;98723.06;3122132;28;19982;-69
2024/01/19 03:21:02;;;;;;;;;;;;;;;7.95;92.61;98723.06;3122117;28;19967;-68
2024/01/19 03:22:34;;;;;;;;;;;;;;;7.94;92.62;98725.75;3121922;28;20294;-69
2024/01/19 03:24:04;;;;;;;;;;;;;;;7.94;92.62;98721.41;3122043;28;19928;-69
2024/01/19 03:25:37;;;;;;;;;;;;;;;7.94;92.54;98726.56;3122216;28;19925;-68
2024/01/19 03:27:08;;;;;;;;;;;;;;;7.94;92.45;98729.16;3119169;28;19925;-69
2024/01/19 03:28:39;;;;;;;;;;;;;;;7.94;92.61;98730.94;3122220;28;20310;-70
2024/01/19 03:30:11;;;;;;;;;;;;;;;7.95;92.32;98732.59;3121989;28;20406;-70
2024/01/19 03:31:42;;;;;;;;;;;;;;;7.95;92.26;98732.59;3121701;28;19921;-69
2024/01/19 03:33:14;;;;;;;;;;;;;;;7.94;92.25;98729.16;3121855;28;19925;-69
2024/01/19 03:34:44;;;;;;;;;;;;;;;7.93;92.19;98731.84;3122123;28;20445;-70
2024/01/19 03:36:16;;;;;;;;;;;;;;;7.92;92.16;98728.41;3121821;28;19925;-69
2024/01/19 03:37:46;;;;;;;;;;;;;;;7.93;92.07;98718.91;3121780;28;19925;-68
2024/01/19 03:39:18;;;;;;;;;;;;;;;7.92;92.18;98723.22;3121585;28;20475;-68
2024/01/19 03:40:50;;;;;;;;;;;;;;;7.91;91.96;98718.13;3121928;28;19921;-68
2024/01/19 03:42:22;;;;;;;;;;;;;;;7.92;92.09;98717.19;3121764;28;19993;-68
2024/01/19 03:43:52;;;;;;;;;;;;;;;7.92;91.86;98712.84;3121618;28;19948;-68
2024/01/19 03:45:24;;;;;;;;;;;;;;;7.92;91.97;98709.44;3121546;28;19921;-68
2024/01/19 03:46:56;;;;;;;;;;;;;;;7.92;91.83;98709.44;3121891;28;20004;-68
2024/01/19 03:48:27;;;;;;;;;;;;;;;7.92;91.78;98712.84;3121688;28;19925;-68
2024/01/19 03:49:58;;;;;;;;;;;;;;;7.92;91.78;98712.00;3121796;28;19925;-67
2024/01/19 03:51:29;;;;;;;;;;;;;;;7.91;91.43;98708.59;3121808;28;20015;-67
2024/01/19 03:53:00;;;;;;;;;;;;;;;7.91;91.51;98705.16;3121879;28;19922;-68
2024/01/19 03:54:32;;;;;;;;;;;;;;;7.91;91.41;98713.78;3121635;28;20383;-67
2024/01/19 03:56:04;;;;;;;;;;;;;;;7.90;91.38;98704.34;3121551;28;20250;-67
2024/01/19 03:57:36;;;;;;;;;;;;;;;7.89;91.23;98702.63;3121763;28;19931;-69
2024/01/19 03:59:06;;;;;;;;;;;;;;;7.89;91.20;98707.81;3121580;28;19952;-68
2024/01/19 04:00:38;;;;;;;;;;;;;;;7.89;91.06;98701.81;3121500;28;19921;-68
2024/01/19 04:02:08;;;;;;;;;;;;;;;7.87;91.08;98699.31;3121652;28;20067;-68
2024/01/19 04:03:40;;;;;;;;;;;;;;;7.88;91.27;98700.97;3121429;28;19921;-69
2024/01/19 04:05:10;;;;;;;;;;;;;;;7.88;91.36;98702.72;3121649;28;19932;-69
2024/01/19 04:06:42;;;;;;;;;;;;;;;7.87;90.99;98701.91;3121821;28;19925;-69
2024/01/19 04:08:12;;;;;;;;;;;;;;;7.87;90.92;98699.31;3121607;28;20390;-68
2024/01/19 04:09:44;;;;;;;;;;;;;;;7.87;90.97;98691.53;3121753;28;19930;-68
2024/01/19 04:11:16;;;;;;;;;;;;;;;7.88;91.01;98698.38;3121675;28;19925;-67
2024/01/19 04:12:50;;;;;;;;;;;;;;;7.88;90.82;98693.19;3121560;28;19925;-68
2024/01/19 04:14:20;;;;;;;;;;;;;;;7.87;90.77;98701.91;3121675;28;19921;-69
2024/01/19 04:15:52;;;;;;;;;;;;;;;7.88;90.74;98700.97;3121359;28;20307;-68
2024/01/19 04:17:23;;;;;;;;;;;;;;;7.88;90.67;98702.72;3121584;28;20417;-70
2024/01/19 04:18:54;;;;;;;;;;;;;;;7.87;90.82;98698.47;3121500;28;19921;-68
2024/01/19 04:20:25;;;;;;;;;;;;;;;7.87;90.87;98699.31;3121706;28;19979;-68
2024/01/19 04:21:56;;;;;;;;;;;;;;;7.85;90.88;98706.31;3121440;28;20036;-69
2024/01/19 04:23:27;;;;;;;;;;;;;;;7.82;91.06;98705.66;3121255;28;19925;-70
2024/01/19 04:24:58;;;;;;;;;;;;;;;7.79;90.92;98703.22;3121709;28;19924;-68
2024/01/19 04:26:30;;;;;;;;;;;;;;;7.76;91.29;98706.78;3121855;28;19925;-69
2024/01/19 04:28:02;;;;;;;;;;;;;;;7.73;91.34;98714.72;3121586;28;20011;-67
2024/01/19 04:29:32;;;;;;;;;;;;;;;7.71;91.61;98708.78;3121578;28;19924;-66
2024/01/19 04:31:04;;;;;;;;;;;;;;;7.70;91.54;98715.72;3120814;28;19992;-67
2024/01/19 04:32:35;;;;;;;;;;;;;;;7.70;91.87;98712.28;3121206;28;20459;-68
2024/01/19 04:34:07;;;;;;;;;;;;;;;7.69;91.82;98713.19;3121377;28;19921;-69
2024/01/19 04:35:37;;;;;;;;;;;;;;;7.69;91.83;98713.19;3121325;28;20436;-67
2024/01/19 04:37:09;;;;;;;;;;;;;;;7.69;91.68;98710.59;3121085;28;19940;-67
2024/01/19 04:38:39;;;;;;;;;;;;;;;7.69;91.72;98710.59;3121300;28;20394;-68
2024/01/19 04:40:11;;;;;;;;;;;;;;;7.67;91.62;98712.44;3125345;28;19921;-69
2024/01/19 04:41:43;;;;;;;;;;;;;;;7.65;91.71;98714.25;3121234;28;19925;-68
2024/01/19 04:43:15;;;;;;;;;;;;;;;7.63;91.76;98718.69;3121110;28;20444;-69
2024/01/19 04:44:45;;;;;;;;;;;;;;;7.62;91.87;98722.19;3121179;28;19925;-69
2024/01/19 04:46:17;;;;;;;;;;;;;;;7.61;91.70;98723.13;3121035;28;19925;-69
2024/01/19 04:47:48;;;;;;;;;;;;;;;7.59;91.82;98717.16;3121463;28;20406;-69
2024/01/19 04:49:19;;;;;;;;;;;;;;;7.58;91.82;98718.09;3120931;28;20379;-68
2024/01/19 04:50:50;;;;;;;;;;;;;;;7.55;91.99;98723.44;3121157;28;19928;-68
2024/01/19 04:52:21;;;;;;;;;;;;;;;7.55;91.76;98720.84;3120917;28;20024;-67
2024/01/19 04:53:52;;;;;;;;;;;;;;;7.55;91.86;98726.03;3121265;28;19925;-68
2024/01/19 04:55:23;;;;;;;;;;;;;;;7.52;91.66;98730.44;3120930;28;20417;-68
2024/01/19 04:56:56;;;;;;;;;;;;;;;7.49;92.04;98737.53;3121127;28;19929;-70
2024/01/19 04:58:26;;;;;;;;;;;;;;;7.47;91.85;98732.41;3116767;28;19925;-70
2024/01/19 04:59:58;;;;;;;;;;;;;;;7.46;92.21;98730.75;3116918;28;20295;-70
2024/01/19 05:01:28;;;;;;;;;;;;;;;7.43;92.16;98733.47;3120613;28;19944;-69
2024/01/19 05:03:01;;;;;;;;;;;;;;;7.42;92.36;98739.56;3120979;28;19928;-69
2024/01/19 05:04:31;;;;;;;;;;;;;;;7.41;92.41;98745.66;3120729;28;19960;-69
2024/01/19 05:06:03;;;;;;;;;;;;;;;7.41;92.42;98743.06;3121165;28;19925;-69
2024/01/19 05:07:35;;;;;;;;;;;;;;;7.37;92.27;98727.78;3120722;28;19925;-69
2024/01/19 05:09:06;;;;;;;;;;;;;;;7.40;92.50;98744.00;3120451;28;20492;-67
2024/01/19 05:10:37;;;;;;;;;;;;;;;7.41;92.36;98747.41;3120985;28;20359;-72
2024/01/19 05:12:10;;;;;;;;;;;;;;;7.40;92.28;98745.75;3121026;28;19925;-72
2024/01/19 05:13:40;;;;;;;;;;;;;;;7.35;92.82;98751.16;3120850;28;19925;-69
2024/01/19 05:15:12;;;;;;;;;;;;;;;7.30;92.74;98750.53;3121093;28;19925;-68
2024/01/19 05:16:42;;;;;;;;;;;;;;;7.27;92.78;98756.69;3109133;28;19925;-67
2024/01/19 05:18:14;;;;;;;;;;;;;;;7.26;92.96;98762.78;3119694;28;19925;-66
2024/01/19 05:19:46;;;;;;;;;;;;;;;7.25;92.88;98752.53;3120439;28;19921;-70
2024/01/19 05:21:17;;;;;;;;;;;;;;;7.24;92.83;98749.06;3120442;28;20394;-70
2024/01/19 05:22:48;;;;;;;;;;;;;;;7.23;92.45;98759.50;3120794;28;19928;-68
2024/01/19 05:24:19;;;;;;;;;;;;;;;7.21;92.43;98756.16;3120614;28;20375;-69
2024/01/19 05:25:50;;;;;;;;;;;;;;;7.18;92.48;98757.13;3117089;28;19954;-68
2024/01/19 05:27:23;;;;;;;;;;;;;;;7.19;92.52;98760.59;3117925;28;19921;-68
2024/01/19 05:28:53;;;;;;;;;;;;;;;7.18;92.35;98758.88;3118581;28;19924;-70
2024/01/19 05:30:25;;;;;;;;;;;;;;;7.13;92.54;98756.53;3116725;28;20028;-73
2024/01/19 05:31:56;;;;;;;;;;;;;;;7.11;92.69;98765.28;3120839;28;19941;-69
2024/01/19 05:33:27;;;;;;;;;;;;;;;7.11;92.68;98768.69;3120859;28;20019;-67
2024/01/19 05:34:57;;;;;;;;;;;;;;;7.13;92.65;98771.19;3120958;28;19948;-70
2024/01/19 05:36:29;;;;;;;;;;;;;;;7.14;92.61;98778.06;3125050;28;19925;-67
2024/01/19 05:38:00;;;;;;;;;;;;;;;7.15;92.53;98782.34;3120565;28;20536;-69
2024/01/19 05:39:31;;;;;;;;;;;;;;;7.11;92.53;98781.66;3120517;28;20024;-73
2024/01/19 05:41:02;;;;;;;;;;;;;;;7.10;92.38;98782.56;3120365;28;19925;-75
2024/01/19 05:42:35;;;;;;;;;;;;;;;7.07;92.48;98785.31;3119340;28;20405;-73
2024/01/19 05:44:05;;;;;;;;;;;;;;;7.06;92.37;98783.59;3120572;28;19925;-71
2024/01/19 05:45:37;;;;;;;;;;;;;;;7.04;92.30;98788.03;3120216;28;20398;-73
2024/01/19 05:47:08;;;;;;;;;;;;;;;7.01;92.48;98786.44;3109201;28;19926;-70
2024/01/19 05:48:39;;;;;;;;;;;;;;;7.00;92.23;98789.91;3119661;28;19931;-69
2024/01/19 05:50:10;;;;;;;;;;;;;;;6.98;92.31;98796.94;3111664;28;19921;-66
2024/01/19 05:51:43;;;;;;;;;;;;;;;6.93;92.37;98798.88;3110080;28;19922;-66
2024/01/19 05:53:23;;;;;;;;;;;;;;;6.91;92.28;98797.25;3111612;28;19944;-69
2024/01/19 05:54:55;;;;;;;;;;;;;;;6.90;92.41;98793.84;3113885;28;20658;-67
2024/01/19 05:56:25;;;;;;;;;;;;;;;6.83;92.46;98788.13;3120217;28;20523;-74
2024/01/19 05:57:58;;;;;;;;;;;;;;;6.90;92.41;98799.03;3118479;28;19995;-71
2024/01/19 05:59:29;;;;;;;;;;;;;;;6.90;92.29;98801.59;3119753;28;19943;-67
2024/01/19 06:01:02;;;;;;;;;;;;;;;6.90;92.22;98804.19;3119670;28;19921;-68
2024/01/19 06:02:33;;;;;;;;;;;;;;;6.91;92.08;98812.78;3119601;28;19985;-68
2024/01/19 06:04:04;;;;;;;;;;;;;;;6.90;92.39;98808.53;3117300;28;19941;-67
2024/01/19 06:05:35;;;;;;;;;;;;;;;6.86;92.80;98807.81;3119846;28;19943;-67
2024/01/19 06:07:07;;;;;;;;;;;;;;;6.82;93.00;98806.28;3114103;28;19925;-67
2024/01/19 06:08:39;;;;;;;;;;;;;;;6.82;93.13;98808.88;3116507;28;19922;-67
2024/01/19 06:10:10;;;;;;;;;;;;;;;6.80;93.06;98813.28;3119820;28;20392;-69
2024/01/19 06:11:41;;;;;;;;;;;;;;;6.78;93.04;98812.53;3120092;28;20432;-70
2024/01/19 06:13:16;;;;;;;;;;;;;;;6.75;93.09;98817.84;3120265;28;20260;-69
2024/01/19 06:14:48;;;;;;;;;;;;;;;6.43;92.81;98767.56;3120097;28;19925;-71
2024/01/19 06:16:20;;;;;;;;;;;;;;;6.76;93.02;98828.09;3119732;28;19975;-73
2024/01/19 06:17:50;;;;;;;;;;;;;;;6.52;92.97;98785.25;3119035;28;19921;-67
2024/01/19 06:19:22;;;;;;;;;;;;;;;6.76;93.12;98825.53;3118635;28;20677;-69
2024/01/19 06:20:54;;;;;;;;;;;;;;;6.75;92.93;98813.50;3119808;28;20406;-68
2024/01/19 06:22:26;;;;;;;;;;;;;;;6.76;93.24;98812.59;3119059;28;20347;-68
2024/01/19 06:23:57;;;;;;;;;;;;;;;6.78;93.25;98813.34;3119876;28;19925;-67
2024/01/19 06:25:28;;;;;;;;;;;;;;;6.81;93.05;98814.97;3120017;28;19921;-68
2024/01/19 06:26:59;;;;;;;;;;;;;;;6.83;93.13;98815.72;3114597;28;19939;-67
2024/01/19 06:28:32;;;;;;;;;;;;;;;6.84;92.91;98812.25;3119970;28;19925;-69
2024/01/19 06:30:08;;;;;;;;;;;;;;;6.87;92.99;98813.84;3120138;28;20433;-70
2024/01/19 06:31:44;;;;;;;;;;;;;;;6.89;92.69;98806.84;3111298;28;19939;-66
2024/01/19 06:33:14;;;;;;;;;;;;;;;6.92;92.82;98801.53;3119989;28;20410;-67
2024/01/19 06:34:46;;;;;;;;;;;;;;;6.97;92.46;98803.00;3119606;28;19929;-68
2024/01/19 06:36:17;;;;;;;;;;;;;;;7.02;92.62;98807.97;3119651;28;19928;-67
2024/01/19 06:37:48;;;;;;;;;;;;;;;7.05;92.45;98805.22;3120110;28;19921;-68
2024/01/19 06:39:19;;;;;;;;;;;;;;;7.10;92.26;98810.19;3119739;28;20335;-67
2024/01/19 06:40:51;;;;;;;;;;;;;;;7.15;92.15;98818.56;3119210;28;19925;-65
2024/01/19 06:42:21;;;;;;;;;;;;;;;7.19;92.04;98822.72;3119888;28;19928;-68
2024/01/19 06:43:54;;;;;;;;;;;;;;;7.22;92.11;98818.22;3119894;28;20438;-68
2024/01/19 06:45:25;;;;;;;;;;;;;;;7.26;92.08;98829.28;3119606;28;19932;-66
2024/01/19 06:46:57;;;;;;;;;;;;;;;7.32;92.42;98834.16;3119797;28;19929;-65
2024/01/19 06:48:27;;;;;;;;;;;;;;;7.39;92.09;98834.72;3119893;28;19925;-66
2024/01/19 06:49:59;;;;;;;;;;;;;;;7.47;92.21;98837.78;3119941;28;19928;-69
2024/01/19 06:51:30;;;;;;;;;;;;;;;7.57;92.03;98851.13;3119829;28;19928;-66
2024/01/19 06:53:03;;;;;;;;;;;;;;;7.66;92.13;98850.69;3111439;28;20394;-66
2024/01/19 06:54:34;;;;;;;;;;;;;;;7.64;92.53;98849.94;3118958;28;19951;-69
2024/01/19 06:56:06;;;;;;;;;;;;;;;7.61;92.34;98855.25;3119652;28;19921;-69
2024/01/19 06:57:36;;;;;;;;;;;;;;;7.60;92.65;98856.16;3121346;28;20011;-67
2024/01/19 06:59:09;;;;;;;;;;;;;;;7.59;92.80;98847.56;3114704;28;20311;-63
2024/01/19 07:00:43;;;;;;;;;;;;;;;7.65;93.04;98836.88;3114520;28;19951;-64
2024/01/19 07:02:14;;;;;;;;;;;;;;;7.73;92.79;98846.91;3116883;28;20115;-64
2024/01/19 07:03:45;;;;;;;;;;;;;;;7.80;92.59;98832.72;3111575;28;19978;-67
2024/01/19 07:05:17;;;;;;;;;;;;;;;7.89;92.58;98836.59;3111602;28;20453;-67
2024/01/19 07:06:48;;;;;;;;;;;;;;;7.69;92.65;98799.56;3119571;28;19921;-64
2024/01/19 07:08:19;;;;;;;;;;;;;;;7.72;92.11;98801.16;3119059;28;20361;-66
2024/01/19 07:09:50;;;;;;;;;;;;;;;8.07;92.35;98847.81;3119634;28;20384;-65
2024/01/19 07:11:22;;;;;;;;;;;;;;;8.05;92.19;98847.91;3117092;28;19947;-65
2024/01/19 07:12:52;;;;;;;;;;;;;;;8.04;92.29;98846.19;3119588;28;20412;-69
2024/01/19 07:14:26;;;;;;;;;;;;;;;8.12;92.20;98848.41;3119241;28;19928;-66
2024/01/19 07:15:56;;;;;;;;;;;;;;;8.20;92.12;98841.09;3119318;28;20433;-66
2024/01/19 07:17:28;;;;;;;;;;;;;;;8.27;92.10;98842.44;3119749;28;19932;-65
2024/01/19 07:18:58;;;;;;;;;;;;;;;8.31;91.98;98849.19;3119507;28;19921;-66
2024/01/19 07:20:30;;;;;;;;;;;;;;;8.32;92.00;98840.47;3119416;28;20032;-64
2024/01/19 07:22:01;;;;;;;;;;;;;;;8.37;91.90;98837.63;3116472;28;20387;-68
2024/01/19 07:23:32;;;;;;;;;;;;;;;8.45;91.77;98834.69;3108203;28;19925;-67
2024/01/19 07:25:04;;;;;;;;;;;;;;;8.55;91.76;98836.72;3114304;28;19920;-66
2024/01/19 07:26:36;;;;;;;;;;;;;;;8.66;91.66;98849.94;3115324;28;20079;-68
2024/01/19 07:28:19;;;;;;;;;;;;;;;8.73;91.33;98840.09;3114326;28;20428;-71
2024/01/19 07:29:59;;;;;;;;;;;;;;;8.78;91.30;98834.66;3119733;28;19921;-68
2024/01/19 07:31:42;;;;;;;;;;;;;;;8.84;91.26;98831.72;3118979;28;19936;-69
2024/01/19 07:33:28;;;;;;;;;;;;;;;8.93;91.21;98828.63;3119148;28;20398;-69
2024/01/19 07:35:42;;;;;;;;;;;;;;;;;;;;;
2024/01/19 07:37:21;;;;;;;;;;;;;;;9.20;90.81;98826.31;3107949;28;19925;-71
2024/01/19 07:38:58;;;;;;;;;;;;;;;9.34;90.82;98836.75;3119085;28;19925;-70
2024/01/19 07:40:41;;;;;;;;;;;;;;;9.53;90.55;98827.97;3107147;28;20446;-69
2024/01/19 07:42:34;;;;;;;;;;;;;;;9.76;90.33;98822.28;3107667;28;19925;-69
2024/01/19 07:44:19;;;;;;;;;;;;;;;10.03;89.70;98819.84;3102259;28;20013;-66
2024/01/19 07:46:07;;;;;;;;;;;;;;;10.23;89.24;98821.28;3118814;28;19925;-67
2024/01/19 07:47:41;;;;;;;;;;;;;;;10.50;88.99;98810.19;3119770;28;20394;-67
2024/01/19 07:49:12;;;;;;;;;;;;;;;10.77;88.64;98819.84;3113902;28;19960;-66
2024/01/19 07:50:54;;;;;;;;;;;;;;;10.99;87.85;98814.97;3119882;28;19984;-68
2024/01/19 07:52:25;;;;;;;;;;;;;;;11.25;87.30;98809.88;3118600;28;20400;-69
2024/01/19 07:53:57;;;;;;;;;;;;;;;11.47;86.74;98806.72;3112846;28;19921;-67
2024/01/19 07:55:33;;;;;;;;;;;;;;;11.70;85.82;98805.22;3119454;28;19929;-68
2024/01/19 07:57:06;;;;;;;;;;;;;;;11.95;85.21;98797.50;3110608;28;20028;-68
2024/01/19 07:58:37;;;;;;;;;;;;;;;12.20;84.33;98798.44;3119417;28;19921;-68
2024/01/19 08:00:09;;;;;;;;;;;;;;;12.46;83.35;98804.50;3119499;28;19955;-68
2024/01/19 08:01:48;;;;;;;;;;;;;;;12.68;82.87;98809.06;3111246;28;19929;-69
2024/01/19 08:03:21;;;;;;;;;;;;;;;12.92;82.11;98816.97;3116993;28;19960;-66
2024/01/19 08:04:54;;;;;;;;;;;;;;;13.13;81.25;98825.91;3110365;28;20189;-69